Fort Lauderdale, FL

10:10 AM EDT on October 20, 2014 (GMT -0400)
Fort Lauderdale Executive | Change Station
CLOSE
Current Station
Airport
Location: Fort Lauderdale,
Elevation: 13 ft
Nearby Weather Stations

Elev 13 ft 26.20 °N, 80.18 °W | Updated 17 minutes ago

Partly Cloudy
Partly Cloudy
83 °F
Feels Like 84 °F
N
8
Wind Variable Wind from ENE

Today
High -- | Low -- °F
--% Chance of Precip.
Yesterday
High -- | Low -- °F
Precip. -- in
7:22 AM 6:48 PM
Waning Crescent, 11% visible
Pressure 30.04 in
Visibility 10.0 miles
Clouds Few 3000 ft
Heat Index 84 °F
Dew Point 62 °F
Humidity 49%
Rainfall 0.00 in
Snow Depth Not available.
UV 4 out of 12
Pollen 3.60 out of 12
Ozone Good
Flu Activity Local Activity
METAR KFXE 201353Z 07007KT 10SM FEW030 28/17 A3003 RMK AO2 SLP172 T02830167

More Conditions Fewer Conditions

Pressure 30.04 in
Visibility 10.0 miles
Clouds Few 3000 ft
Heat Index 84 °F
Dew Point 62 °F
Humidity 49%
Rainfall 0.00 in
Snow Depth Not available.
UV 4 out of 12
Pollen 3.60 out of 12
Ozone Good
Flu Activity Local Activity
METAR KFXE 201353Z 07007KT 10SM FEW030 28/17 A3003 RMK AO2 SLP172 T02830167

More Conditions Fewer Conditions

10-Day Weather Forecast

Almanac

Astronomy

Oct. 20, 2014 Rise Set
Actual Time 7:22 AM EDT 6:48 PM EDT
Civil Twilight 6:59 AM EDT 7:11 PM EDT
Nautical Twilight 6:32 AM EDT 7:38 PM EDT
Astronomical Twilight 6:05 AM EDT 8:05 PM EDT
Moon 4:27 AM EDT 4:54 PM EDT
Length of Visible Light 12h 12m
Length of Day
11h 25m
Waning Crescent, 11% of the Moon is Illuminated
Today
Waning Crescent
Oct 23
New
Oct 30
First Quarter
Nov 6
Full
Nov 14
Last Quarter

Today's Extremes

State Highs State Lows

Community

WunderPhotos

Upload Photos

1,763,388 photos uploaded!

Nearby

Air Quality

  Air Quality AQ Index Pollutant
Yesterday Good
OZONE
Current Good
OZONE
Monday Good
OZONE
Monday Good
PM2.5

Snow Depth

Station Depth Elevation
No new snow has been reported.

Earthquake Activity

City Distance Mag. Time & Date
No recent earthquake activity has been reported nearby.
Minimum magnitude displayed is 2.5.

Coastal Water Temperatures

Place Temperature
Virginia Key, FL 81.0 °F

Nearby Weather Stations